TimeCDT,TemperatureF,Dew PointF,Humidity,Sea Level PressureIn,VisibilityMPH,Wind Direction,Wind SpeedMPH,Gust SpeedMPH,PrecipitationIn,Events,Conditions,WindDirDegrees,DateUTC
12:51 AM,73.0,61.0,66,30.04,10.0,South,5.8,-,N/A,,Scattered Clouds,190,2013-08-20 05:51:00
1:51 AM,72.0,61.0,68,30.04,10.0,SSW,4.6,-,N/A,,Mostly Cloudy,210,2013-08-20 06:51:00
2:51 AM,71.1,62.1,73,30.04,10.0,SSW,5.8,-,N/A,,Scattered Clouds,210,2013-08-20 07:51:00
3:51 AM,70.0,62.1,76,30.04,10.0,SW,4.6,-,N/A,,Partly Cloudy,230,2013-08-20 08:51:00
4:51 AM,70.0,62.1,76,30.05,10.0,SSW,4.6,-,N/A,,Partly Cloudy,210,2013-08-20 09:51:00
5:51 AM,69.1,62.1,78,30.07,8.0,SSW,5.8,-,N/A,,Partly Cloudy,200,2013-08-20 10:51:00
6:51 AM,69.1,62.1,78,30.09,10.0,South,3.5,-,N/A,,Partly Cloudy,190,2013-08-20 11:51:00
7:51 AM,73.0,62.1,68,30.09,10.0,South,3.5,-,N/A,,Partly Cloudy,190,2013-08-20 12:51:00
8:51 AM,78.1,62.1,58,30.10,10.0,SW,8.1,-,N/A,,Scattered Clouds,230,2013-08-20 13:51:00
9:51 AM,81.0,62.1,52,30.10,10.0,West,11.5,-,N/A,,Scattered Clouds,260,2013-08-20 14:51:00
10:51 AM,81.0,62.1,52,30.10,10.0,WSW,10.4,-,N/A,,Mostly Cloudy,240,2013-08-20 15:51:00
11:51 AM,82.0,61.0,49,30.09,10.0,SW,5.8,-,N/A,,Mostly Cloudy,230,2013-08-20 16:51:00
12:51 PM,84.9,60.1,43,30.07,10.0,SW,9.2,-,N/A,,Mostly Cloudy,220,2013-08-20 17:51:00
1:51 PM,84.0,57.0,40,30.06,10.0,SSW,10.4,-,N/A,,Mostly Cloudy,210,2013-08-20 18:51:00
2:51 PM,87.1,55.9,35,30.04,10.0,WSW,12.7,17.3,N/A,,Mostly Cloudy,250,2013-08-20 19:51:00
3:51 PM,87.1,57.0,36,30.03,10.0,SSW,9.2,17.3,N/A,,Mostly Cloudy,200,2013-08-20 20:51:00
4:51 PM,88.0,57.9,36,30.02,10.0,SW,13.8,-,N/A,,Mostly Cloudy,220,2013-08-20 21:51:00
5:51 PM,87.1,59.0,39,30.01,10.0,SSW,13.8,-,N/A,,Mostly Cloudy,210,2013-08-20 22:51:00
6:51 PM,84.9,60.1,43,30.02,10.0,SSW,9.2,-,N/A,,Mostly Cloudy,200,2013-08-20 23:51:00
7:51 PM,82.9,60.1,46,30.02,10.0,SSW,6.9,-,N/A,,Partly Cloudy,200,2013-08-21 00:51:00
8:51 PM,82.0,61.0,49,30.03,10.0,South,5.8,-,N/A,,Clear,180,2013-08-21 01:51:00
9:51 PM,80.1,61.0,52,30.03,10.0,South,5.8,-,N/A,,Clear,180,2013-08-21 02:51:00
10:51 PM,78.1,62.1,58,30.04,10.0,South,4.6,-,N/A,,Partly Cloudy,180,2013-08-21 03:51:00
11:51 PM,75.9,63.0,64,30.05,10.0,SSW,5.8,-,N/A,,Mostly Cloudy,200,2013-08-21 04:51:00